createdAt,value
2022-09-13T00:00:59.847Z,5.10
2022-09-13T00:03:26.809Z,4.90
2022-09-13T00:05:54.000Z,4.57
2022-09-13T00:08:20.540Z,6.07
2022-09-13T00:10:47.137Z,5.78
2022-09-13T00:13:15.773Z,5.43
2022-09-13T00:15:44.072Z,6.05
2022-09-13T00:18:10.439Z,7.25
2022-09-13T00:20:36.959Z,6.13
2022-09-13T00:23:03.656Z,4.72
2022-09-13T00:25:30.168Z,5.97
2022-09-13T00:27:56.645Z,6.22
2022-09-13T00:30:23.071Z,5.03
2022-09-13T00:32:49.467Z,4.53
2022-09-13T00:35:15.886Z,6.68
2022-09-13T00:37:42.388Z,4.60
2022-09-13T00:40:10.046Z,4.68
2022-09-13T00:42:37.400Z,4.88
2022-09-13T00:45:06.740Z,6.20
2022-09-13T00:47:49.511Z,6.75
2022-09-13T00:50:38.288Z,6.40
2022-09-13T00:53:09.192Z,5.50
2022-09-13T00:55:40.284Z,4.20
2022-09-13T00:58:11.864Z,7.22
2022-09-13T01:00:39.248Z,4.97
2022-09-13T01:03:08.026Z,6.63
2022-09-13T01:05:43.167Z,5.03
2022-09-13T01:08:18.084Z,6.95
2022-09-13T01:10:45.040Z,5.13
2022-09-13T01:13:16.841Z,5.03
2022-09-13T01:15:43.266Z,4.90
2022-09-13T01:18:11.112Z,6.20
2022-09-13T01:20:46.353Z,5.28
2022-09-13T01:23:26.486Z,5.30
2022-09-13T01:26:35.618Z,5.53
2022-09-13T01:29:46.111Z,6.35
2022-09-13T01:32:28.986Z,6.78
2022-09-13T01:35:07.713Z,7.50
2022-09-13T01:38:03.242Z,6.40
2022-09-13T01:40:46.003Z,5.78
2022-09-13T01:43:32.004Z,8.02
2022-09-13T01:46:27.860Z,7.28
2022-09-13T01:49:07.564Z,5.38
2022-09-13T01:51:38.695Z,6.32
2022-09-13T01:54:10.981Z,8.63
2022-09-13T01:56:59.622Z,6.25
2022-09-13T01:59:46.426Z,6.05
2022-09-13T02:02:17.218Z,6.00
2022-09-13T02:04:48.149Z,5.25
2022-09-13T02:07:35.614Z,6.13
2022-09-13T02:10:15.035Z,7.22
2022-09-13T02:12:43.297Z,6.10
2022-09-13T02:15:25.423Z,7.32
2022-09-13T02:21:28.074Z,7.65
2022-09-13T02:23:59.150Z,7.43
2022-09-13T02:26:26.003Z,6.15
2022-09-13T02:28:53.564Z,6.50
2022-09-13T02:31:29.604Z,6.82
2022-09-13T02:34:03.291Z,6.82
2022-09-13T02:36:31.696Z,8.00
2022-09-13T02:39:04.149Z,8.02
2022-09-13T02:44:07.700Z,6.45
2022-09-13T02:46:59.094Z,6.45
2022-09-13T02:49:58.267Z,7.53
2022-09-13T02:52:52.547Z,6.72
2022-09-13T02:56:04.410Z,7.72
2022-09-13T02:58:56.314Z,7.28
2022-09-13T03:01:22.849Z,7.13
2022-09-13T03:03:49.407Z,7.25
2022-09-13T03:06:26.487Z,7.07
2022-09-13T03:08:54.667Z,8.23
2022-09-13T03:11:38.914Z,6.90
2022-09-13T03:14:32.577Z,6.65
2022-09-13T03:17:22.460Z,8.20
2022-09-13T03:19:51.777Z,7.25
2022-09-13T03:22:24.383Z,7.85
2022-09-13T03:25:12.931Z,7.65
2022-09-13T03:28:12.981Z,9.18
2022-09-13T03:30:44.112Z,6.82
2022-09-13T03:33:24.487Z,6.95
2022-09-13T03:35:54.726Z,7.20
2022-09-13T03:38:38.472Z,9.25
2022-09-13T03:41:27.132Z,8.38
2022-09-13T03:44:02.954Z,7.28
2022-09-13T03:46:35.426Z,7.57
2022-09-13T03:51:29.251Z,10.00
2022-09-13T03:53:59.064Z,7.13
2022-09-13T03:56:25.481Z,7.10
2022-09-13T03:58:51.939Z,7.03
2022-09-13T04:01:20.838Z,7.60
2022-09-13T04:03:47.930Z,6.50
2022-09-13T04:06:14.329Z,6.88
2022-09-13T04:08:40.728Z,7.25
2022-09-13T04:11:07.252Z,6.40
2022-09-13T04:13:33.622Z,6.80
2022-09-13T04:16:05.028Z,9.20
2022-09-13T04:18:31.970Z,6.60
2022-09-13T04:20:59.795Z,6.63
2022-09-13T04:23:27.849Z,9.63
2022-09-13T04:25:54.461Z,6.93
2022-09-13T04:28:22.063Z,9.23
2022-09-13T04:30:49.543Z,8.90
2022-09-13T04:33:17.364Z,8.77
2022-09-13T04:35:44.049Z,7.88
2022-09-13T04:38:11.009Z,6.80
2022-09-13T04:40:37.995Z,8.93
2022-09-13T04:43:04.446Z,8.70
2022-09-13T04:45:30.860Z,6.88
2022-09-13T04:47:57.325Z,6.88
2022-09-13T04:50:24.432Z,7.07
2022-09-13T04:52:51.896Z,8.82
2022-09-13T04:55:18.371Z,7.60
2022-09-13T04:57:44.820Z,8.18
2022-09-13T05:00:11.526Z,7.63
2022-09-13T05:02:38.025Z,7.93
2022-09-13T05:05:04.988Z,7.32
2022-09-13T05:07:31.383Z,7.40
2022-09-13T05:09:57.851Z,10.80
2022-09-13T05:12:24.247Z,6.82
2022-09-13T05:14:50.636Z,6.30
2022-09-13T05:17:17.136Z,7.13
2022-09-13T05:19:43.516Z,6.57
2022-09-13T05:22:10.093Z,6.90
2022-09-13T05:24:36.497Z,7.68
2022-09-13T05:27:02.929Z,6.97
2022-09-13T05:29:29.324Z,7.10
2022-09-13T05:31:55.709Z,8.20
2022-09-13T05:34:22.143Z,9.43
2022-09-13T05:36:54.213Z,10.60
2022-09-13T05:42:07.244Z,7.03
2022-09-13T05:44:33.615Z,8.77
2022-09-13T05:46:59.984Z,9.55
2022-09-13T05:49:26.394Z,7.75
2022-09-13T05:51:52.852Z,8.48
2022-09-13T05:54:19.319Z,7.90
2022-09-13T05:56:45.697Z,9.20
2022-09-13T05:59:13.795Z,8.68
2022-09-13T06:01:40.254Z,8.55
2022-09-13T06:04:06.751Z,8.13
2022-09-13T06:06:36.422Z,9.35
2022-09-13T06:09:02.837Z,7.50
2022-09-13T06:11:29.206Z,7.18
2022-09-13T06:13:58.412Z,9.00
2022-09-13T06:16:24.881Z,7.85
2022-09-13T06:18:51.339Z,8.30
2022-09-13T06:21:20.515Z,7.88
2022-09-13T06:23:51.749Z,7.75
2022-09-13T06:26:20.869Z,9.07
2022-09-13T06:28:52.143Z,7.03
2022-09-13T06:31:20.151Z,7.28
2022-09-13T06:33:46.758Z,8.20
2022-09-13T06:36:18.632Z,8.68
2022-09-13T06:38:46.460Z,9.13
2022-09-13T06:41:20.720Z,10.30
2022-09-13T06:43:48.011Z,10.18
2022-09-13T06:46:16.230Z,10.55
2022-09-13T06:48:44.061Z,8.63
2022-09-13T06:51:13.503Z,9.82
2022-09-13T06:53:41.109Z,9.23
2022-09-13T06:56:10.516Z,10.52
2022-09-13T06:58:37.559Z,8.85
2022-09-13T07:01:14.512Z,8.88
2022-09-13T07:03:45.423Z,9.07
2022-09-13T07:06:13.434Z,7.97
2022-09-13T07:08:41.400Z,8.57
2022-09-13T07:11:09.446Z,9.48
2022-09-13T07:13:36.168Z,10.43
2022-09-13T07:16:08.769Z,9.85
2022-09-13T07:18:35.685Z,9.77
2022-09-13T07:21:07.616Z,10.75
2022-09-13T07:23:36.076Z,8.82
2022-09-13T07:26:05.420Z,14.35
2022-09-13T07:28:35.465Z,10.60
2022-09-13T07:31:08.054Z,13.43
2022-09-13T07:36:03.448Z,13.07
2022-09-13T07:38:30.058Z,11.63
2022-09-13T07:40:58.165Z,13.93
2022-09-13T07:43:25.418Z,10.80
2022-09-13T07:46:03.239Z,11.13
2022-09-13T07:48:33.534Z,9.80
2022-09-13T07:51:05.842Z,11.32
2022-09-13T07:53:33.151Z,9.45
2022-09-13T07:56:02.802Z,10.80
2022-09-13T07:58:29.699Z,11.82
2022-09-13T08:01:07.600Z,12.48
2022-09-13T08:03:34.913Z,11.90
2022-09-13T08:06:04.378Z,12.07
2022-09-13T08:08:31.629Z,12.80
2022-09-13T08:10:58.571Z,10.82
2022-09-13T08:13:25.032Z,11.77
2022-09-13T08:15:51.881Z,11.23
2022-09-13T08:18:19.202Z,11.85
2022-09-13T08:20:45.749Z,13.43
2022-09-13T08:23:12.997Z,12.55
2022-09-13T08:25:40.355Z,15.20
2022-09-13T08:28:08.590Z,12.30
2022-09-13T08:30:37.041Z,15.77
2022-09-13T08:33:04.499Z,13.38
2022-09-13T08:35:31.069Z,14.77
2022-09-13T08:37:57.570Z,12.73
2022-09-13T08:40:25.853Z,15.75
2022-09-13T08:43:13.300Z,13.95
2022-09-13T08:45:40.371Z,14.13
2022-09-13T08:48:14.769Z,17.17
2022-09-13T08:50:42.334Z,14.32
2022-09-13T08:53:18.402Z,13.88
2022-09-13T08:55:51.412Z,15.50
2022-09-13T08:58:32.895Z,18.35
2022-09-13T09:01:06.381Z,18.63
2022-09-13T09:03:39.196Z,18.90
2022-09-13T09:06:12.336Z,18.05
2022-09-13T09:08:47.279Z,15.50
2022-09-13T09:11:22.911Z,13.80
2022-09-13T09:13:58.354Z,16.33
2022-09-13T09:16:41.199Z,18.70
2022-09-13T09:19:19.063Z,15.13
2022-09-13T09:21:47.060Z,17.15
2022-09-13T09:24:19.254Z,20.77
2022-09-13T09:26:45.952Z,13.57
2022-09-13T09:29:25.100Z,13.07
2022-09-13T09:32:00.816Z,14.05
2022-09-13T09:34:53.751Z,13.27
2022-09-13T09:37:28.891Z,13.80
2022-09-13T09:39:59.084Z,18.27
2022-09-13T09:42:28.982Z,14.23
2022-09-13T09:44:58.698Z,13.73
2022-09-13T09:47:30.292Z,13.98
2022-09-13T09:50:09.223Z,15.40
2022-09-13T09:52:42.904Z,16.15
2022-09-13T09:55:29.524Z,14.35
2022-09-13T09:58:04.319Z,12.18
2022-09-13T10:00:34.011Z,13.05
2022-09-13T10:03:17.342Z,13.18
2022-09-13T10:05:43.997Z,15.93
2022-09-13T10:08:28.961Z,14.02
2022-09-13T10:11:00.330Z,16.45
2022-09-13T10:13:31.573Z,16.30
2022-09-13T10:16:04.072Z,14.50
2022-09-13T10:18:44.870Z,17.88
2022-09-13T10:21:17.392Z,16.23
2022-09-13T10:23:45.001Z,18.35
2022-09-13T10:26:12.245Z,14.32
2022-09-13T10:29:07.403Z,13.95
2022-09-13T10:31:38.995Z,16.35
2022-09-13T10:34:13.659Z,11.83
2022-09-13T10:36:53.178Z,15.85
2022-09-13T10:39:21.848Z,16.02
2022-09-13T10:42:02.974Z,13.48
2022-09-13T10:44:51.391Z,15.85
2022-09-13T10:47:48.927Z,12.35
2022-09-13T10:50:24.988Z,13.10
2022-09-13T10:52:53.124Z,13.82
2022-09-13T10:55:19.394Z,12.45
2022-09-13T10:57:50.705Z,13.45
2022-09-13T11:00:32.426Z,13.38
2022-09-13T11:03:04.873Z,11.03
2022-09-13T11:05:52.967Z,11.05
2022-09-13T11:08:45.692Z,10.93
2022-09-13T11:11:24.113Z,12.23
2022-09-13T11:14:15.475Z,11.07
2022-09-13T11:17:15.009Z,13.05
2022-09-13T11:20:13.148Z,12.30
2022-09-13T11:23:02.146Z,11.70
2022-09-13T11:26:00.677Z,11.30
2022-09-13T11:28:26.973Z,14.43
2022-09-13T11:31:20.812Z,13.85
2022-09-13T11:34:12.653Z,13.45
2022-09-13T11:36:58.116Z,12.48
2022-09-13T11:39:28.362Z,9.85
2022-09-13T11:42:05.728Z,10.45
2022-09-13T11:44:52.791Z,11.38
2022-09-13T11:47:34.618Z,10.85
2022-09-13T11:50:00.967Z,9.02
2022-09-13T11:52:50.865Z,8.35
2022-09-13T11:55:21.360Z,9.35
2022-09-13T11:57:50.663Z,8.00
2022-09-13T12:00:20.068Z,9.73
2022-09-13T12:02:57.808Z,7.28
2022-09-13T12:05:27.912Z,7.75
2022-09-13T12:08:06.003Z,8.48
2022-09-13T12:10:38.791Z,7.07
2022-09-13T12:13:09.236Z,6.47
2022-09-13T12:15:39.007Z,7.45
2022-09-13T12:18:13.529Z,8.45
2022-09-13T12:20:44.534Z,10.18
2022-09-13T12:23:19.575Z,9.70
2022-09-13T12:25:56.933Z,9.45
2022-09-13T12:28:27.530Z,10.43
2022-09-13T12:30:58.271Z,11.73
2022-09-13T12:33:25.726Z,10.38
2022-09-13T12:36:19.716Z,11.15
2022-09-13T12:39:15.954Z,11.38
2022-09-13T12:42:07.311Z,11.90
2022-09-13T12:44:44.488Z,12.93
2022-09-13T12:47:30.458Z,13.30
2022-09-13T12:50:41.886Z,12.82
2022-09-13T12:53:32.776Z,13.73
2022-09-13T12:56:14.354Z,12.07
2022-09-13T12:58:49.570Z,10.70
2022-09-13T13:01:26.768Z,10.18
2022-09-13T13:03:56.773Z,9.88
2022-09-13T13:06:37.093Z,9.30
2022-09-13T13:09:08.627Z,9.80
2022-09-13T13:11:44.523Z,10.50
2022-09-13T13:14:28.123Z,9.10
2022-09-13T13:16:54.572Z,7.43
2022-09-13T13:19:32.631Z,8.00
2022-09-13T13:22:50.280Z,7.63
2022-09-13T13:25:39.702Z,8.38
2022-09-13T13:28:44.806Z,8.30
2022-09-13T13:31:31.206Z,7.55
2022-09-13T13:34:06.656Z,8.77
2022-09-13T13:36:42.193Z,8.35
2022-09-13T13:39:26.799Z,9.38
2022-09-13T13:42:01.587Z,9.25
2022-09-13T13:44:28.126Z,9.70
2022-09-13T13:47:09.530Z,5.53
2022-09-13T13:49:39.083Z,5.28
2022-09-13T13:52:25.355Z,4.30
2022-09-13T13:54:54.810Z,9.30
2022-09-13T13:57:28.638Z,5.30
2022-09-13T14:00:11.381Z,5.32
2022-09-13T14:02:45.379Z,3.67
2022-09-13T14:05:46.068Z,3.97
2022-09-13T14:08:38.472Z,3.97
2022-09-13T14:11:15.918Z,2.65
2022-09-13T14:14:04.499Z,3.92
2022-09-13T14:16:42.093Z,2.13
2022-09-13T14:19:08.470Z,2.42
2022-09-13T14:21:34.988Z,2.95
2022-09-13T14:24:23.598Z,1.92
2022-09-13T14:26:52.552Z,1.63
2022-09-13T14:29:21.298Z,2.80
2022-09-13T14:31:49.400Z,2.72
2022-09-13T14:34:33.152Z,2.67
2022-09-13T14:37:02.884Z,3.67
2022-09-13T14:39:30.605Z,2.88
2022-09-13T14:42:11.143Z,3.30
2022-09-13T14:44:37.730Z,3.40
2022-09-13T14:47:12.986Z,2.13
2022-09-13T14:49:49.131Z,2.05
2022-09-13T14:52:38.048Z,2.55
2022-09-13T14:55:12.140Z,3.38
2022-09-13T14:57:47.183Z,3.00
2022-09-13T15:00:19.809Z,3.65
2022-09-13T15:02:55.203Z,2.75
2022-09-13T15:05:24.657Z,1.30
2022-09-13T15:07:51.599Z,3.03
2022-09-13T15:10:17.872Z,2.17
2022-09-13T15:12:57.884Z,3.42
2022-09-13T15:15:41.628Z,2.33
2022-09-13T15:18:20.366Z,3.55
2022-09-13T15:20:50.411Z,3.10
2022-09-13T15:23:19.249Z,2.97
2022-09-13T15:25:52.822Z,2.20
2022-09-13T15:28:27.802Z,2.55
2022-09-13T15:30:55.590Z,3.03
2022-09-13T15:33:34.192Z,1.77
2022-09-13T15:36:19.007Z,3.10
2022-09-13T15:38:58.790Z,2.78
2022-09-13T15:41:31.451Z,1.75
2022-09-13T15:43:59.417Z,3.30
2022-09-13T15:46:26.127Z,2.00
2022-09-13T15:48:57.671Z,2.30
2022-09-13T15:51:24.111Z,1.30
2022-09-13T15:53:50.996Z,1.63
2022-09-13T15:56:22.358Z,2.38
2022-09-13T15:58:48.957Z,3.77
2022-09-13T16:01:16.226Z,3.03
2022-09-13T16:03:42.649Z,3.03
2022-09-13T16:06:09.453Z,3.78
2022-09-13T16:08:36.997Z,1.63
2022-09-13T16:11:03.499Z,2.08
2022-09-13T16:13:29.993Z,1.83
2022-09-13T16:15:58.115Z,3.80
2022-09-13T16:18:24.958Z,2.22
2022-09-13T16:20:51.497Z,1.88
2022-09-13T16:23:18.183Z,4.38
2022-09-13T16:25:44.783Z,2.63
2022-09-13T16:28:20.791Z,1.88
2022-09-13T16:30:47.692Z,1.80
2022-09-13T16:33:14.354Z,1.75
2022-09-13T16:35:40.771Z,3.40
2022-09-13T16:38:07.138Z,4.38
2022-09-13T16:40:33.646Z,2.15
2022-09-13T16:43:00.076Z,2.97
2022-09-13T16:45:26.508Z,3.67
2022-09-13T16:47:52.905Z,4.15
2022-09-13T16:50:19.850Z,2.35
2022-09-13T16:52:46.281Z,1.55
2022-09-13T16:55:12.646Z,2.35
2022-09-13T16:57:39.130Z,4.38
2022-09-13T17:00:09.269Z,2.83
2022-09-13T17:02:35.870Z,3.55
2022-09-13T17:05:02.441Z,4.38
2022-09-13T17:07:28.846Z,2.50
2022-09-13T17:09:55.343Z,2.13
2022-09-13T17:12:21.871Z,4.25
2022-09-13T17:14:50.495Z,2.63
2022-09-13T17:17:17.541Z,1.75
2022-09-13T17:19:44.830Z,1.45
2022-09-13T17:22:11.394Z,2.08
2022-09-13T17:24:38.314Z,2.33
2022-09-13T17:27:06.662Z,2.17
2022-09-13T17:29:34.498Z,2.60
2022-09-13T17:32:01.945Z,1.95
2022-09-13T17:34:28.685Z,3.05
2022-09-13T17:36:55.176Z,3.65
2022-09-13T17:39:21.639Z,3.60
2022-09-13T17:41:48.718Z,2.13
2022-09-13T17:44:16.197Z,1.55
2022-09-13T17:46:42.679Z,1.58
2022-09-13T17:49:09.292Z,2.22
2022-09-13T17:51:35.700Z,2.78
2022-09-13T17:54:04.762Z,1.35
2022-09-13T17:56:34.121Z,3.35
2022-09-13T17:59:09.847Z,2.55
2022-09-13T18:01:38.625Z,1.80
2022-09-13T18:04:05.085Z,2.47
2022-09-13T18:06:31.559Z,1.92
2022-09-13T18:08:58.297Z,4.93
2022-09-13T18:11:24.796Z,2.08
2022-09-13T18:13:51.968Z,4.20
2022-09-13T18:16:21.668Z,3.35
2022-09-13T18:18:49.757Z,5.85
2022-09-13T18:21:19.591Z,4.53
2022-09-13T18:23:47.484Z,1.55
2022-09-13T18:26:17.015Z,2.10
2022-09-13T18:28:43.871Z,1.45
2022-09-13T18:31:14.126Z,3.22
2022-09-13T18:33:40.855Z,1.95
2022-09-13T18:36:10.390Z,3.08
2022-09-13T18:38:42.532Z,2.30
2022-09-13T18:41:13.307Z,2.53
2022-09-13T18:43:40.816Z,2.83
2022-09-13T18:46:09.646Z,2.60
2022-09-13T18:48:39.028Z,2.97
2022-09-13T18:51:06.047Z,0.80
2022-09-13T18:53:35.051Z,2.65
2022-09-13T18:56:03.222Z,2.55
2022-09-13T18:58:34.156Z,1.65
2022-09-13T19:01:15.619Z,2.80
2022-09-13T19:03:53.573Z,2.20
2022-09-13T19:06:25.133Z,2.65
2022-09-13T19:08:52.630Z,1.30
2022-09-13T19:11:44.820Z,2.03
2022-09-13T19:14:07.545Z,3.38
2022-09-13T19:16:34.493Z,5.13
2022-09-13T19:19:01.150Z,2.30
2022-09-13T19:21:29.888Z,2.88
2022-09-13T19:23:59.927Z,3.88
2022-09-13T19:26:30.935Z,6.40
2022-09-13T19:29:06.122Z,4.15
2022-09-13T19:31:34.655Z,2.15
2022-09-13T19:34:02.250Z,4.55
2022-09-13T19:36:34.033Z,5.35
2022-09-13T19:39:01.115Z,5.63
2022-09-13T19:41:29.589Z,5.90
2022-09-13T19:44:00.024Z,5.28
2022-09-13T19:46:31.161Z,3.15
2022-09-13T19:48:58.973Z,6.72
2022-09-13T19:51:28.199Z,7.25
2022-09-13T19:53:57.736Z,6.63
2022-09-13T19:56:32.766Z,5.65
2022-09-13T19:58:59.888Z,3.65
2022-09-13T20:01:29.313Z,5.75
2022-09-13T20:04:03.320Z,5.72
2022-09-13T20:06:34.685Z,4.75
2022-09-13T20:09:01.464Z,5.38
2022-09-13T20:11:28.969Z,6.70
2022-09-13T20:13:56.211Z,4.90
2022-09-13T20:16:24.888Z,5.80
2022-09-13T20:18:52.128Z,8.07
2022-09-13T20:21:18.902Z,7.10
2022-09-13T20:23:46.088Z,7.93
2022-09-13T20:26:21.991Z,7.20
2022-09-13T20:28:50.260Z,9.55
2022-09-13T20:31:16.873Z,6.53
2022-09-13T20:33:43.318Z,7.82
2022-09-13T20:36:11.663Z,5.30
2022-09-13T20:38:38.604Z,7.93
2022-09-13T20:41:11.497Z,7.43
2022-09-13T20:43:38.458Z,8.35
2022-09-13T20:46:05.521Z,8.57
2022-09-13T20:48:32.946Z,8.63
2022-09-13T20:51:01.070Z,7.97
2022-09-13T20:53:28.337Z,5.60
2022-09-13T20:55:55.734Z,7.63
2022-09-13T20:58:22.789Z,4.90
2022-09-13T21:00:49.288Z,5.38
2022-09-13T21:03:16.467Z,5.45
2022-09-13T21:05:43.103Z,5.80
2022-09-13T21:08:35.458Z,5.78
2022-09-13T21:11:03.753Z,4.82
2022-09-13T21:13:35.274Z,4.55
2022-09-13T21:16:05.916Z,6.32
2022-09-13T21:18:32.612Z,5.82
2022-09-13T21:21:00.338Z,7.57
2022-09-13T21:23:27.592Z,7.47
2022-09-13T21:25:53.972Z,5.65
2022-09-13T21:28:20.339Z,6.22
2022-09-13T21:31:00.053Z,4.03
2022-09-13T21:33:26.844Z,4.53
2022-09-13T21:35:56.791Z,5.35
2022-09-13T21:38:25.204Z,5.43
2022-09-13T21:41:00.574Z,6.95
2022-09-13T21:43:27.901Z,5.38
2022-09-13T21:46:07.589Z,5.05
2022-09-13T21:48:35.116Z,7.00
2022-09-13T21:51:16.821Z,5.97
2022-09-13T21:53:44.195Z,6.82
2022-09-13T21:56:12.575Z,2.72
2022-09-13T21:58:39.018Z,7.68
2022-09-13T22:01:12.577Z,6.10
2022-09-13T22:03:41.360Z,6.10
2022-09-13T22:06:09.244Z,4.57
2022-09-13T22:08:38.522Z,4.93
2022-09-13T22:11:10.645Z,5.60
2022-09-13T22:13:45.291Z,7.00
2022-09-13T22:16:13.727Z,6.35
2022-09-13T22:18:40.728Z,4.20
2022-09-13T22:21:09.132Z,8.90
2022-09-13T22:23:35.815Z,3.97
2022-09-13T22:26:13.642Z,6.15
2022-09-13T22:28:40.050Z,5.93
2022-09-13T22:31:08.531Z,7.53
2022-09-13T22:33:35.387Z,4.95
2022-09-13T22:36:04.097Z,4.13
2022-09-13T22:38:30.727Z,5.15
2022-09-13T22:40:58.478Z,5.60
2022-09-13T22:43:25.262Z,8.10
2022-09-13T22:45:52.474Z,4.72
2022-09-13T22:48:22.694Z,6.97
2022-09-13T22:50:51.026Z,5.13
2022-09-13T22:53:17.378Z,5.32
2022-09-13T22:55:43.778Z,4.45
2022-09-13T22:58:10.160Z,3.97
2022-09-13T23:00:36.574Z,4.18
2022-09-13T23:03:03.532Z,5.70
2022-09-13T23:05:30.199Z,5.00
2022-09-13T23:07:56.574Z,4.85
2022-09-13T23:10:23.622Z,9.20
2022-09-13T23:12:49.983Z,4.68
2022-09-13T23:15:16.466Z,6.00
2022-09-13T23:17:42.861Z,4.72
2022-09-13T23:20:09.461Z,11.70
2022-09-13T23:22:35.843Z,6.78
2022-09-13T23:25:02.206Z,9.60
2022-09-13T23:27:28.555Z,4.95
2022-09-13T23:29:54.922Z,3.85
2022-09-13T23:32:21.670Z,5.68
2022-09-13T23:34:48.066Z,4.50
2022-09-13T23:37:14.460Z,7.00
2022-09-13T23:39:40.849Z,4.95
2022-09-13T23:42:07.299Z,6.55
2022-09-13T23:44:33.691Z,8.55
2022-09-13T23:47:00.077Z,6.50
2022-09-13T23:49:26.475Z,3.58
2022-09-13T23:51:52.846Z,7.63
2022-09-13T23:54:19.299Z,5.38
2022-09-13T23:56:45.877Z,7.93
2022-09-13T23:59:13.272Z,4.13
